Irvington, New York
Current Conditions -  °F | °C
As of 8:56 AM on Thursday 18 Dec 2014 (Local Time) from KHPN Reporting Station
Scattered Clouds Scattered Clouds  
Wind Chill: 26°   Ceiling: Unl
Heat Index: 36°   Visibility: 10mi
Dew Point: 23°   Wind: 18mph
Humidity: 59%   Direction: 300°WNW
Pressure: 29.93"   Gusts: 30mph
Location:  41.04°N, 73.87°W
Report Text: KHPN 181356Z 30016G26KT 10SM SCT035 02/M05 A2993 RMK AO2 PK WND 29026/1352 SLP140 T00221050
Loading
Personal Weather Stations






























Interactive Weather Map New forecast layout! Learn more

10-Day Weather Forecast

Advertisements
Track Severe Weather on mobile